Time;durP1;ratioP1;P1;durP2;ratioP2;P2;SDS_P1;SDS_P2;PMS_P1;PMS_P2;Temp;Humidity;BMP_temperature;BMP_pressure;BME280_temperature;BME280_humidity;BME280_pressure;Samples;Min_cycle;Max_cycle;Signal;HPM_P1;HPM_P2
2023/05/29 00:01:08;;;;;;;;;;;14.90;78.20;;;;;;5090069;28;19912;-70
2023/05/29 00:03:35;;;;;;;;;;;14.70;79.00;;;;;;5073897;28;20333;-70
2023/05/29 00:06:02;;;;;;;;;;;14.60;79.30;;;;;;5054583;28;19920;-70
2023/05/29 00:08:28;;;;;;;;;;;14.70;79.60;;;;;;5091604;28;19917;-70
2023/05/29 00:10:53;;;;;;;;;;;14.60;80.30;;;;;;5073312;28;19931;-70
2023/05/29 00:13:19;;;;;;;;;;;14.50;80.80;;;;;;5073950;28;19916;-71
2023/05/29 00:15:46;;;;;;;;;;;14.60;80.50;;;;;;5074489;28;19977;-70
2023/05/29 00:18:11;;;;;;;;;;;14.50;80.70;;;;;;5090569;28;19912;-72
2023/05/29 00:20:37;;;;;;;;;;;14.50;81.10;;;;;;5072103;28;19908;-71
2023/05/29 00:23:05;;;;;;;;;;;14.40;81.10;;;;;;5092127;28;19923;-71
2023/05/29 00:25:30;;;;;;;;;;;14.50;81.30;;;;;;5071906;28;19913;-70
2023/05/29 00:27:56;;;;;;;;;;;14.40;81.40;;;;;;5091608;28;19942;-71
2023/05/29 00:30:21;;;;;;;;;;;14.30;82.20;;;;;;5073423;28;19985;-71
2023/05/29 00:32:47;;;;;;;;;;;14.20;82.40;;;;;;5055777;28;20384;-71
2023/05/29 00:35:13;;;;;;;;;;;14.20;82.60;;;;;;5089346;28;19916;-71
2023/05/29 00:37:39;;;;;;;;;;;14.10;83.10;;;;;;5071860;28;20371;-71
2023/05/29 00:40:05;;;;;;;;;;;14.00;83.80;;;;;;5089737;28;19962;-70
2023/05/29 00:42:30;;;;;;;;;;;13.90;84.50;;;;;;5072005;28;19944;-72
2023/05/29 00:44:56;;;;;;;;;;;13.90;84.70;;;;;;5073317;28;20412;-71
2023/05/29 00:47:22;;;;;;;;;;;13.90;85.20;;;;;;5091553;28;19965;-71
2023/05/29 00:49:47;;;;;;;;;;;13.80;85.90;;;;;;5071198;28;19936;-70
2023/05/29 00:52:13;;;;;;;;;;;13.70;86.70;;;;;;5092363;28;19908;-71
2023/05/29 00:54:39;;;;;;;;;;;13.60;87.00;;;;;;5057571;28;19915;-71
2023/05/29 00:57:05;;;;;;;;;;;13.50;87.50;;;;;;5073085;28;19912;-70
2023/05/29 00:59:31;;;;;;;;;;;13.50;88.20;;;;;;5091387;28;19914;-70
2023/05/29 01:01:58;;;;;;;;;;;13.50;88.70;;;;;;5064247;28;20399;-71
2023/05/29 01:04:25;;;;;;;;;;;13.40;89.20;;;;;;5090798;28;19932;-70
2023/05/29 01:06:51;;;;;;;;;;;13.30;89.50;;;;;;5070847;28;19912;-72
2023/05/29 01:09:17;;;;;;;;;;;13.30;90.00;;;;;;5089268;28;19909;-71
2023/05/29 01:11:42;;;;;;;;;;;13.20;90.00;;;;;;5071481;28;19919;-71
2023/05/29 01:14:09;;;;;;;;;;;13.20;90.30;;;;;;5072726;28;19908;-70
2023/05/29 01:16:38;;;;;;;;;;;13.00;90.90;;;;;;5091418;28;19923;-71
2023/05/29 01:19:09;;;;;;;;;;;13.00;91.00;;;;;;5089774;28;19908;-70
2023/05/29 01:21:45;;;;;;;;;;;13.00;91.30;;;;;;5088923;28;19908;-70
2023/05/29 01:24:17;;;;;;;;;;;13.00;91.40;;;;;;5069105;28;19957;-69
2023/05/29 01:27:00;;;;;;;;;;;13.00;91.40;;;;;;5090640;28;19995;-70
2023/05/29 01:29:32;;;;;;;;;;;12.90;92.10;;;;;;5073377;28;20279;-69
2023/05/29 01:31:58;;;;;;;;;;;12.90;92.50;;;;;;5073249;28;19950;-70
2023/05/29 01:34:24;;;;;;;;;;;12.90;92.60;;;;;;5072867;28;20335;-72
2023/05/29 01:36:50;;;;;;;;;;;12.90;92.60;;;;;;5072603;28;19916;-70
2023/05/29 01:39:16;;;;;;;;;;;12.90;93.30;;;;;;5088835;28;19999;-68
2023/05/29 01:41:45;;;;;;;;;;;12.80;93.30;;;;;;5091216;28;20003;-69
2023/05/29 01:44:12;;;;;;;;;;;12.80;93.40;;;;;;5091760;28;20145;-70
2023/05/29 01:46:38;;;;;;;;;;;12.90;93.50;;;;;;5072933;28;19908;-70
2023/05/29 01:49:04;;;;;;;;;;;12.80;93.80;;;;;;5090706;28;19970;-69
2023/05/29 01:51:31;;;;;;;;;;;12.80;93.80;;;;;;5073118;28;19912;-70
2023/05/29 01:53:57;;;;;;;;;;;12.70;94.20;;;;;;5071625;28;19916;-69
2023/05/29 01:56:23;;;;;;;;;;;12.70;94.20;;;;;;5088167;28;19977;-71
2023/05/29 01:58:50;;;;;;;;;;;12.60;94.30;;;;;;5053837;28;20437;-70
2023/05/29 02:01:16;;;;;;;;;;;12.60;94.70;;;;;;5071904;28;20389;-69
2023/05/29 02:03:41;;;;;;;;;;;12.60;95.00;;;;;;5090337;28;19921;-71
2023/05/29 02:06:07;;;;;;;;;;;12.50;95.20;;;;;;5072683;28;19912;-70
2023/05/29 02:08:33;;;;;;;;;;;12.50;95.70;;;;;;5092423;28;19920;-72
2023/05/29 02:10:58;;;;;;;;;;;12.50;95.40;;;;;;5088854;28;19930;-69
2023/05/29 02:13:24;;;;;;;;;;;12.50;95.90;;;;;;5070313;28;19908;-70
2023/05/29 02:15:50;;;;;;;;;;;12.50;96.10;;;;;;5071366;28;19915;-69
2023/05/29 02:18:17;;;;;;;;;;;12.50;96.30;;;;;;5054738;28;19908;-71
2023/05/29 02:20:42;;;;;;;;;;;12.40;96.40;;;;;;5089837;28;19908;-69
2023/05/29 02:23:09;;;;;;;;;;;12.40;96.40;;;;;;5089285;28;20291;-71
2023/05/29 02:25:35;;;;;;;;;;;12.50;96.40;;;;;;5087976;28;19920;-69
2023/05/29 02:28:01;;;;;;;;;;;12.50;96.20;;;;;;5088416;28;19918;-69
2023/05/29 02:30:27;;;;;;;;;;;12.30;96.60;;;;;;5070757;28;19919;-70
2023/05/29 02:32:52;;;;;;;;;;;12.30;96.90;;;;;;5089706;28;19908;-70
2023/05/29 02:35:20;;;;;;;;;;;12.30;97.00;;;;;;5071189;28;19912;-70
2023/05/29 02:37:46;;;;;;;;;;;12.20;97.40;;;;;;5089696;28;20364;-71
2023/05/29 02:40:12;;;;;;;;;;;12.10;97.90;;;;;;5080679;28;19927;-69
2023/05/29 02:42:37;;;;;;;;;;;12.10;98.40;;;;;;5070100;28;19923;-71
2023/05/29 02:45:03;;;;;;;;;;;12.10;98.40;;;;;;5089110;28;19916;-69
2023/05/29 02:47:29;;;;;;;;;;;12.10;98.50;;;;;;5070358;28;20006;-70
2023/05/29 02:49:54;;;;;;;;;;;12.00;98.50;;;;;;5071008;28;20360;-70
2023/05/29 02:52:20;;;;;;;;;;;12.00;98.90;;;;;;5088361;28;20375;-70
2023/05/29 02:54:46;;;;;;;;;;;12.00;99.00;;;;;;5069394;28;19912;-69
2023/05/29 02:57:12;;;;;;;;;;;12.10;98.90;;;;;;5071189;28;20022;-69
2023/05/29 02:59:37;;;;;;;;;;;12.10;99.00;;;;;;5087979;28;19908;-69
2023/05/29 03:02:03;;;;;;;;;;;12.00;99.00;;;;;;5070057;28;19975;-70
2023/05/29 03:04:28;;;;;;;;;;;12.00;99.40;;;;;;5087545;28;19920;-71
2023/05/29 03:06:54;;;;;;;;;;;12.00;99.30;;;;;;5088128;28;19912;-71
2023/05/29 03:09:20;;;;;;;;;;;11.90;99.70;;;;;;5070298;28;20006;-69
2023/05/29 03:11:47;;;;;;;;;;;12.00;99.70;;;;;;5069104;28;20332;-69
2023/05/29 03:14:13;;;;;;;;;;;12.00;99.70;;;;;;5052425;28;19919;-70
2023/05/29 03:16:40;;;;;;;;;;;11.90;99.90;;;;;;5086670;28;19916;-70
2023/05/29 03:19:07;;;;;;;;;;;11.80;99.90;;;;;;5069781;28;20346;-69
2023/05/29 03:21:33;;;;;;;;;;;11.90;99.90;;;;;;5088567;28;19916;-69
2023/05/29 03:23:59;;;;;;;;;;;11.70;99.90;;;;;;5070056;28;20010;-69
2023/05/29 03:26:25;;;;;;;;;;;11.70;99.90;;;;;;5067637;28;19991;-70
2023/05/29 03:28:51;;;;;;;;;;;11.80;99.90;;;;;;5088643;28;19916;-71
2023/05/29 03:31:16;;;;;;;;;;;11.70;99.90;;;;;;5086864;28;19917;-69
2023/05/29 03:33:42;;;;;;;;;;;11.70;99.90;;;;;;5065058;28;19923;-72
2023/05/29 03:36:08;;;;;;;;;;;11.70;99.90;;;;;;5052876;28;19916;-72
2023/05/29 03:38:33;;;;;;;;;;;11.70;99.90;;;;;;5088303;28;19908;-72
2023/05/29 03:40:59;;;;;;;;;;;11.70;99.90;;;;;;5087960;28;19923;-70
2023/05/29 03:43:25;;;;;;;;;;;11.70;99.90;;;;;;5085623;28;19919;-71
2023/05/29 03:45:51;;;;;;;;;;;11.70;99.90;;;;;;5088251;28;19934;-71
2023/05/29 03:48:16;;;;;;;;;;;11.70;99.90;;;;;;5086031;28;19927;-72
2023/05/29 03:50:42;;;;;;;;;;;11.70;99.90;;;;;;5070094;28;20316;-70
2023/05/29 03:53:07;;;;;;;;;;;11.70;99.90;;;;;;5068208;28;20208;-70
2023/05/29 03:55:33;;;;;;;;;;;11.60;99.90;;;;;;5069489;28;20015;-70
2023/05/29 03:57:58;;;;;;;;;;;11.50;99.90;;;;;;5087845;28;20284;-71
2023/05/29 04:00:24;;;;;;;;;;;11.50;99.90;;;;;;5069912;28;19969;-70
2023/05/29 04:02:51;;;;;;;;;;;11.50;99.90;;;;;;5053858;28;19908;-70
2023/05/29 04:05:16;;;;;;;;;;;11.60;99.90;;;;;;5086218;28;20322;-71
2023/05/29 04:07:42;;;;;;;;;;;11.50;99.90;;;;;;5069399;28;19916;-72
2023/05/29 04:10:08;;;;;;;;;;;11.40;99.90;;;;;;5069287;28;19920;-72
2023/05/29 04:12:34;;;;;;;;;;;11.40;99.90;;;;;;5069338;28;19912;-71
2023/05/29 04:14:59;;;;;;;;;;;11.50;99.90;;;;;;5070200;28;19916;-71
2023/05/29 04:17:25;;;;;;;;;;;11.50;99.90;;;;;;5087705;28;20325;-72
2023/05/29 04:19:51;;;;;;;;;;;11.50;99.90;;;;;;5089271;28;19919;-70
2023/05/29 04:22:16;;;;;;;;;;;11.50;99.90;;;;;;5087870;28;20399;-72
2023/05/29 04:24:42;;;;;;;;;;;11.50;99.90;;;;;;5087219;28;19912;-70
2023/05/29 04:27:13;;;;;;;;;;;11.60;99.90;;;;;;5087718;28;19916;-71
2023/05/29 04:29:42;;;;;;;;;;;11.60;99.90;;;;;;5087534;28;19916;-70
2023/05/29 04:32:09;;;;;;;;;;;11.70;99.90;;;;;;5069624;28;19912;-73
2023/05/29 04:34:35;;;;;;;;;;;11.70;99.90;;;;;;5069610;28;20355;-71
2023/05/29 04:37:02;;;;;;;;;;;11.70;99.90;;;;;;5086167;28;19920;-72
2023/05/29 04:39:28;;;;;;;;;;;11.80;99.90;;;;;;5065252;28;19916;-71
2023/05/29 04:41:54;;;;;;;;;;;11.80;99.90;;;;;;5069117;28;19926;-72
2023/05/29 04:44:19;;;;;;;;;;;11.70;99.90;;;;;;5070203;28;19967;-72
2023/05/29 04:46:46;;;;;;;;;;;11.80;99.90;;;;;;5073569;28;20369;-71
2023/05/29 04:49:15;;;;;;;;;;;11.70;99.90;;;;;;5073492;28;20533;-70
2023/05/29 04:51:40;;;;;;;;;;;11.80;99.90;;;;;;5090635;28;19919;-70
2023/05/29 04:54:07;;;;;;;;;;;11.80;99.90;;;;;;5089634;28;20295;-71
2023/05/29 04:56:32;;;;;;;;;;;11.80;99.90;;;;;;5072928;28;20298;-72
2023/05/29 04:58:58;;;;;;;;;;;11.90;99.90;;;;;;5091282;28;20039;-72
2023/05/29 05:01:25;;;;;;;;;;;11.90;99.90;;;;;;5091961;28;20236;-72
2023/05/29 05:03:52;;;;;;;;;;;12.00;99.90;;;;;;5090949;28;20261;-71
2023/05/29 05:06:18;;;;;;;;;;;12.00;99.90;;;;;;5089257;28;19963;-72
2023/05/29 05:08:44;;;;;;;;;;;12.00;99.90;;;;;;5069905;28;19916;-71
2023/05/29 05:11:09;;;;;;;;;;;11.90;99.90;;;;;;5070530;28;19923;-72
2023/05/29 05:13:35;;;;;;;;;;;12.00;99.90;;;;;;5072482;28;20307;-70
2023/05/29 05:16:01;;;;;;;;;;;12.00;99.90;;;;;;5092716;28;19916;-71
2023/05/29 05:18:26;;;;;;;;;;;12.00;99.90;;;;;;5090222;28;19908;-72
2023/05/29 05:20:52;;;;;;;;;;;12.00;99.90;;;;;;5092263;28;20292;-72
2023/05/29 05:23:17;;;;;;;;;;;12.00;99.90;;;;;;5094098;28;19912;-72
2023/05/29 05:25:43;;;;;;;;;;;11.90;99.90;;;;;;5062076;28;20161;-71
2023/05/29 05:28:09;;;;;;;;;;;11.90;99.90;;;;;;5088510;28;19912;-72
2023/05/29 05:30:35;;;;;;;;;;;11.90;99.90;;;;;;5071401;28;20054;-71
2023/05/29 05:33:01;;;;;;;;;;;12.20;99.90;;;;;;5091729;28;20379;-70
2023/05/29 05:35:26;;;;;;;;;;;12.30;99.90;;;;;;5073087;28;19930;-70
2023/05/29 05:37:52;;;;;;;;;;;12.20;99.90;;;;;;5091095;28;19912;-73
2023/05/29 05:40:18;;;;;;;;;;;12.00;99.90;;;;;;5089334;28;20284;-71
2023/05/29 05:42:43;;;;;;;;;;;12.00;99.90;;;;;;5072278;28;19920;-71
2023/05/29 05:45:09;;;;;;;;;;;11.90;99.90;;;;;;5073607;28;19916;-70
2023/05/29 05:47:35;;;;;;;;;;;11.90;99.90;;;;;;5089804;28;19919;-72
2023/05/29 05:50:01;;;;;;;;;;;12.00;99.90;;;;;;5090616;28;19930;-70
2023/05/29 05:52:30;;;;;;;;;;;12.10;99.90;;;;;;5071896;28;19916;-70
2023/05/29 05:54:56;;;;;;;;;;;12.10;99.90;;;;;;5070338;28;19953;-71
2023/05/29 05:57:21;;;;;;;;;;;12.10;99.90;;;;;;5069607;28;20407;-71
2023/05/29 05:59:47;;;;;;;;;;;12.20;99.90;;;;;;5087805;28;19919;-71
2023/05/29 06:02:13;;;;;;;;;;;12.20;99.90;;;;;;5070398;28;20338;-70
2023/05/29 06:04:38;;;;;;;;;;;12.10;99.90;;;;;;5082539;28;19924;-70
2023/05/29 06:07:04;;;;;;;;;;;12.00;99.90;;;;;;5071643;28;19909;-71
2023/05/29 06:09:29;;;;;;;;;;;12.10;99.90;;;;;;5088046;28;19934;-72
2023/05/29 06:11:55;;;;;;;;;;;12.10;99.90;;;;;;5089580;28;19916;-71
2023/05/29 06:14:20;;;;;;;;;;;12.10;99.90;;;;;;5053220;28;19916;-71
2023/05/29 06:16:46;;;;;;;;;;;12.20;99.90;;;;;;5090009;28;19923;-71
2023/05/29 06:19:12;;;;;;;;;;;12.20;99.90;;;;;;5090353;28;19912;-70
2023/05/29 06:21:37;;;;;;;;;;;12.30;99.90;;;;;;5088963;28;19908;-70
2023/05/29 06:24:03;;;;;;;;;;;12.30;99.90;;;;;;5053425;28;19917;-69
2023/05/29 06:26:29;;;;;;;;;;;12.30;99.90;;;;;;5071174;28;19916;-71
2023/05/29 06:28:54;;;;;;;;;;;12.30;99.90;;;;;;5054264;28;19978;-71
2023/05/29 06:31:20;;;;;;;;;;;12.40;99.90;;;;;;5086089;28;19923;-70
2023/05/29 06:33:46;;;;;;;;;;;12.50;99.90;;;;;;5071383;28;19914;-71
2023/05/29 06:36:11;;;;;;;;;;;12.50;99.90;;;;;;5089181;28;19959;-71
2023/05/29 06:38:37;;;;;;;;;;;12.50;99.90;;;;;;5069019;28;19916;-70
2023/05/29 06:41:03;;;;;;;;;;;12.60;99.90;;;;;;5069294;28;19916;-72
2023/05/29 06:43:28;;;;;;;;;;;12.60;99.90;;;;;;5069411;28;19912;-71
2023/05/29 06:45:54;;;;;;;;;;;12.70;99.90;;;;;;5088163;28;19908;-71
2023/05/29 06:48:20;;;;;;;;;;;12.70;99.90;;;;;;5087668;28;19955;-71
2023/05/29 06:50:47;;;;;;;;;;;12.70;99.90;;;;;;5087925;28;19958;-70
2023/05/29 06:53:12;;;;;;;;;;;12.70;99.60;;;;;;5070293;28;20015;-70
2023/05/29 06:55:40;;;;;;;;;;;12.70;99.80;;;;;;5069745;28;20007;-70
2023/05/29 06:58:06;;;;;;;;;;;12.70;99.80;;;;;;5067555;28;19916;-70
2023/05/29 07:00:31;;;;;;;;;;;12.70;99.50;;;;;;5055216;28;19923;-71
2023/05/29 07:02:57;;;;;;;;;;;12.80;99.40;;;;;;5069161;28;20047;-70
2023/05/29 07:05:23;;;;;;;;;;;13.00;99.60;;;;;;5087400;28;20440;-71
2023/05/29 07:07:48;;;;;;;;;;;13.00;99.50;;;;;;5087491;28;20310;-71
2023/05/29 07:10:14;;;;;;;;;;;13.00;99.70;;;;;;5067540;28;19912;-71
2023/05/29 07:12:39;;;;;;;;;;;13.00;99.50;;;;;;5068670;28;19919;-70
2023/05/29 07:15:05;;;;;;;;;;;13.00;99.50;;;;;;5086111;28;19994;-71
2023/05/29 07:17:31;;;;;;;;;;;13.00;99.30;;;;;;5068123;28;20283;-72
2023/05/29 07:19:56;;;;;;;;;;;13.00;98.90;;;;;;5059243;28;19924;-72
2023/05/29 07:22:22;;;;;;;;;;;13.00;99.20;;;;;;5087570;28;19923;-71
2023/05/29 07:24:47;;;;;;;;;;;13.00;99.20;;;;;;5069818;28;19912;-72
2023/05/29 07:27:13;;;;;;;;;;;13.00;99.20;;;;;;5086539;28;19919;-71
2023/05/29 07:29:39;;;;;;;;;;;13.00;99.10;;;;;;5084672;28;19952;-70
2023/05/29 07:32:05;;;;;;;;;;;13.10;99.10;;;;;;5070077;28;20283;-71
2023/05/29 07:34:31;;;;;;;;;;;13.20;98.90;;;;;;5087304;28;19916;-71
2023/05/29 07:37:00;;;;;;;;;;;13.10;99.20;;;;;;5086750;28;19923;-71
2023/05/29 07:39:25;;;;;;;;;;;13.30;99.90;;;;;;5087102;28;19916;-71
2023/05/29 07:41:51;;;;;;;;;;;13.70;98.50;;;;;;5066094;28;19920;-71
2023/05/29 07:44:17;;;;;;;;;;;13.50;98.50;;;;;;5052621;28;19908;-70
2023/05/29 07:46:42;;;;;;;;;;;13.60;98.30;;;;;;5084136;28;19919;-72
2023/05/29 07:49:08;;;;;;;;;;;13.50;98.20;;;;;;5053205;28;19918;-70
2023/05/29 07:51:33;;;;;;;;;;;13.60;98.20;;;;;;5085833;28;19916;-71
2023/05/29 07:53:59;;;;;;;;;;;13.50;98.30;;;;;;5089032;28;19908;-70
2023/05/29 07:56:25;;;;;;;;;;;13.60;98.40;;;;;;5090552;28;19956;-71
2023/05/29 07:58:53;;;;;;;;;;;13.70;97.90;;;;;;5090977;28;19938;-70
2023/05/29 08:01:19;;;;;;;;;;;13.70;98.10;;;;;;5050802;28;19919;-72
2023/05/29 08:03:44;;;;;;;;;;;13.60;98.10;;;;;;5069982;28;20389;-71
2023/05/29 08:06:10;;;;;;;;;;;13.70;97.90;;;;;;5082565;28;20017;-71
2023/05/29 08:08:36;;;;;;;;;;;13.70;98.20;;;;;;5067664;28;19912;-70
2023/05/29 08:11:01;;;;;;;;;;;13.70;97.40;;;;;;5068972;28;19916;-72
2023/05/29 08:13:27;;;;;;;;;;;13.70;97.40;;;;;;5084838;28;19985;-72
2023/05/29 08:15:53;;;;;;;;;;;13.70;97.50;;;;;;5087487;28;20365;-71
2023/05/29 08:18:18;;;;;;;;;;;13.70;97.20;;;;;;5070242;28;19923;-72
2023/05/29 08:20:44;;;;;;;;;;;13.80;97.20;;;;;;5091370;28;20361;-72
2023/05/29 08:23:10;;;;;;;;;;;13.80;97.20;;;;;;5091381;28;19930;-71
2023/05/29 08:25:36;;;;;;;;;;;13.90;97.70;;;;;;5071681;28;19976;-72
2023/05/29 08:28:01;;;;;;;;;;;13.90;97.60;;;;;;5072347;28;20279;-72
2023/05/29 08:30:27;;;;;;;;;;;13.90;97.30;;;;;;5073119;28;19923;-71
2023/05/29 08:32:52;;;;;;;;;;;14.00;97.10;;;;;;5091609;28;19985;-72
2023/05/29 08:35:18;;;;;;;;;;;14.00;97.70;;;;;;5090708;28;19919;-72
2023/05/29 08:37:43;;;;;;;;;;;14.00;97.60;;;;;;5090930;28;19958;-71
2023/05/29 08:40:09;;;;;;;;;;;14.10;97.50;;;;;;5072369;28;20330;-71
2023/05/29 08:42:36;;;;;;;;;;;14.20;97.50;;;;;;5074235;28;20003;-70
2023/05/29 08:45:03;;;;;;;;;;;14.30;96.90;;;;;;5092394;28;20287;-72
2023/05/29 08:47:32;;;;;;;;;;;14.30;96.30;;;;;;5092611;28;19912;-70
2023/05/29 08:49:58;;;;;;;;;;;14.40;95.10;;;;;;5073561;28;19997;-70
2023/05/29 08:52:25;;;;;;;;;;;14.40;95.20;;;;;;5091356;28;19967;-71
2023/05/29 08:54:54;;;;;;;;;;;14.50;95.40;;;;;;5057111;28;19912;-70
2023/05/29 08:57:20;;;;;;;;;;;14.40;95.00;;;;;;5091761;28;19955;-70
2023/05/29 08:59:49;;;;;;;;;;;14.60;95.40;;;;;;5073573;28;20279;-71
2023/05/29 09:02:15;;;;;;;;;;;14.60;94.80;;;;;;5092966;28;20584;-72
2023/05/29 09:04:41;;;;;;;;;;;14.70;94.90;;;;;;5093445;28;19919;-71
2023/05/29 09:07:08;;;;;;;;;;;14.70;94.40;;;;;;5079533;28;20003;-72
2023/05/29 09:09:34;;;;;;;;;;;14.70;94.20;;;;;;5088826;28;19908;-72
2023/05/29 09:12:00;;;;;;;;;;;14.80;94.00;;;;;;5091825;28;19916;-72
2023/05/29 09:14:35;;;;;;;;;;;14.90;94.20;;;;;;5091231;28;19919;-70
2023/05/29 09:17:01;;;;;;;;;;;14.90;93.60;;;;;;5092160;28;19912;-71
2023/05/29 09:19:27;;;;;;;;;;;14.90;93.70;;;;;;5091331;28;19994;-70
2023/05/29 09:21:59;;;;;;;;;;;15.00;93.70;;;;;;5088840;28;20429;-72
2023/05/29 09:24:27;;;;;;;;;;;15.00;93.70;;;;;;5069441;28;20017;-72
2023/05/29 09:26:53;;;;;;;;;;;15.10;93.20;;;;;;5090254;28;19944;-70
2023/05/29 09:29:19;;;;;;;;;;;15.00;93.00;;;;;;5089741;28;19931;-71
2023/05/29 09:31:47;;;;;;;;;;;15.20;92.60;;;;;;5090563;28;19911;-70
2023/05/29 09:34:13;;;;;;;;;;;15.20;92.20;;;;;;5073223;28;20360;-70
2023/05/29 09:36:39;;;;;;;;;;;15.20;92.10;;;;;;5090360;28;19964;-72
2023/05/29 09:39:05;;;;;;;;;;;15.20;92.80;;;;;;5088666;28;20000;-72
2023/05/29 09:41:31;;;;;;;;;;;15.30;91.80;;;;;;5087670;28;19981;-71
2023/05/29 09:44:00;;;;;;;;;;;15.30;90.40;;;;;;5090266;28;19916;-71
2023/05/29 09:46:26;;;;;;;;;;;15.40;90.70;;;;;;5090902;28;19973;-71
2023/05/29 09:48:51;;;;;;;;;;;15.50;90.90;;;;;;5072128;28;19916;-71
2023/05/29 09:51:21;;;;;;;;;;;15.60;91.30;;;;;;5090184;28;20411;-70
2023/05/29 09:53:48;;;;;;;;;;;15.70;91.90;;;;;;5090304;28;20006;-70
2023/05/29 09:56:17;;;;;;;;;;;15.70;90.90;;;;;;5088483;28;19915;-71
2023/05/29 09:58:45;;;;;;;;;;;15.80;90.30;;;;;;5088544;28;19957;-70
2023/05/29 10:01:17;;;;;;;;;;;15.80;90.60;;;;;;5079403;28;20362;-72
2023/05/29 10:03:43;;;;;;;;;;;15.90;89.40;;;;;;5089969;28;19912;-72
2023/05/29 10:06:15;;;;;;;;;;;15.90;90.00;;;;;;5071296;28;20265;-71
2023/05/29 10:08:47;;;;;;;;;;;15.90;90.10;;;;;;5071177;28;19912;-72
2023/05/29 10:11:15;;;;;;;;;;;15.90;88.80;;;;;;5054886;28;20363;-71
2023/05/29 10:13:42;;;;;;;;;;;15.90;90.50;;;;;;5089698;28;19943;-72
2023/05/29 10:16:11;;;;;;;;;;;15.90;90.50;;;;;;5087123;28;20006;-73
2023/05/29 10:18:43;;;;;;;;;;;16.00;89.80;;;;;;5071243;28;19918;-71
2023/05/29 10:21:11;;;;;;;;;;;16.10;90.10;;;;;;5085423;28;19991;-72
2023/05/29 10:23:37;;;;;;;;;;;16.10;89.80;;;;;;5088756;28;19978;-72
2023/05/29 10:26:15;;;;;;;;;;;16.10;90.10;;;;;;5086741;28;19919;-71
2023/05/29 10:28:43;;;;;;;;;;;16.20;88.20;;;;;;5089566;28;19962;-72
2023/05/29 10:31:10;;;;;;;;;;;16.10;88.50;;;;;;5069781;28;20394;-71
2023/05/29 10:33:54;;;;;;;;;;;16.20;89.30;;;;;;5090304;28;19912;-71
2023/05/29 10:36:24;;;;;;;;;;;16.30;89.40;;;;;;5084928;28;19912;-71
2023/05/29 10:38:50;;;;;;;;;;;16.30;89.60;;;;;;5067847;28;19918;-71
2023/05/29 10:41:27;;;;;;;;;;;16.40;90.10;;;;;;5083488;28;19947;-71
2023/05/29 10:43:53;;;;;;;;;;;16.50;90.20;;;;;;5088437;28;20304;-72
2023/05/29 10:46:19;;;;;;;;;;;16.60;87.40;;;;;;5070123;28;19909;-71
2023/05/29 10:48:45;;;;;;;;;;;16.60;85.80;;;;;;5070860;28;19908;-70
2023/05/29 10:51:36;;;;;;;;;;;16.60;85.30;;;;;;5089345;28;19918;-72
2023/05/29 10:54:05;;;;;;;;;;;16.60;86.70;;;;;;5083770;28;19977;-71
2023/05/29 10:56:31;;;;;;;;;;;16.60;86.60;;;;;;5084663;28;19924;-71
2023/05/29 10:58:58;;;;;;;;;;;16.70;86.00;;;;;;5068684;28;20399;-72
2023/05/29 11:01:25;;;;;;;;;;;16.70;85.70;;;;;;5088770;28;19914;-71
2023/05/29 11:03:52;;;;;;;;;;;16.80;82.70;;;;;;5088148;28;19912;-73
2023/05/29 11:06:19;;;;;;;;;;;16.80;84.30;;;;;;5054093;28;19959;-72
2023/05/29 11:08:46;;;;;;;;;;;16.90;85.40;;;;;;5053682;28;20026;-70
2023/05/29 11:11:12;;;;;;;;;;;16.90;83.90;;;;;;5086174;28;19908;-71
2023/05/29 11:13:40;;;;;;;;;;;17.10;82.40;;;;;;5086233;28;19928;-70
2023/05/29 11:16:24;;;;;;;;;;;17.20;81.40;;;;;;5068903;28;19918;-71
2023/05/29 11:18:51;;;;;;;;;;;17.40;82.00;;;;;;5088922;28;19912;-71
2023/05/29 11:21:20;;;;;;;;;;;17.80;80.10;;;;;;5053544;28;19912;-72
2023/05/29 11:23:47;;;;;;;;;;;18.30;78.70;;;;;;5088179;28;20391;-72
2023/05/29 11:26:13;;;;;;;;;;;19.10;75.50;;;;;;5088730;28;19950;-70
2023/05/29 11:28:39;;;;;;;;;;;20.10;70.10;;;;;;5089816;28;19924;-70
2023/05/29 11:31:08;;;;;;;;;;;21.20;65.80;;;;;;5085152;28;19973;-70
2023/05/29 11:33:35;;;;;;;;;;;22.80;62.70;;;;;;5087564;28;19916;-72
2023/05/29 11:36:01;;;;;;;;;;;24.00;59.60;;;;;;5052899;28;20006;-70
2023/05/29 11:38:27;;;;;;;;;;;25.30;55.50;;;;;;5068273;28;20003;-71
2023/05/29 11:40:57;;;;;;;;;;;26.20;52.40;;;;;;5065595;28;19943;-71
2023/05/29 11:43:24;;;;;;;;;;;27.40;49.10;;;;;;5085730;28;19908;-71
2023/05/29 11:45:49;;;;;;;;;;;28.20;45.60;;;;;;5050267;28;20003;-70
2023/05/29 11:48:15;;;;;;;;;;;29.10;42.60;;;;;;5084627;28;20364;-72
2023/05/29 11:50:41;;;;;;;;;;;29.70;42.10;;;;;;5084337;28;19923;-72
2023/05/29 11:53:07;;;;;;;;;;;30.30;41.30;;;;;;5071201;28;19998;-72
2023/05/29 11:55:33;;;;;;;;;;;30.20;38.40;;;;;;5087210;28;19927;-72
2023/05/29 11:58:00;;;;;;;;;;;29.20;39.20;;;;;;5089343;28;19908;-72
2023/05/29 12:00:29;;;;;;;;;;;29.70;39.40;;;;;;5087835;28;20312;-72
2023/05/29 12:02:57;;;;;;;;;;;29.30;38.70;;;;;;5085151;28;19954;-73
2023/05/29 12:05:23;;;;;;;;;;;28.40;40.10;;;;;;5045795;28;19966;-71
2023/05/29 12:07:49;;;;;;;;;;;28.30;40.10;;;;;;5086277;28;20264;-72
2023/05/29 12:10:15;;;;;;;;;;;27.80;40.10;;;;;;5048364;28;19915;-73
2023/05/29 12:12:41;;;;;;;;;;;28.10;40.50;;;;;;5083801;28;19913;-71
2023/05/29 12:15:08;;;;;;;;;;;28.60;41.20;;;;;;5085481;28;19915;-73
2023/05/29 12:17:34;;;;;;;;;;;28.40;39.50;;;;;;5069240;28;19939;-71
2023/05/29 12:19:59;;;;;;;;;;;29.00;39.80;;;;;;5060350;28;19913;-71
2023/05/29 12:22:38;;;;;;;;;;;29.40;38.80;;;;;;5085185;28;19923;-72
2023/05/29 12:25:22;;;;;;;;;;;28.30;39.70;;;;;;5059522;28;19912;-71
2023/05/29 12:27:48;;;;;;;;;;;28.70;39.50;;;;;;5079403;28;19962;-71
2023/05/29 12:30:23;;;;;;;;;;;28.40;39.40;;;;;;5081746;28;19942;-72
2023/05/29 12:32:51;;;;;;;;;;;28.90;39.80;;;;;;5085140;28;19912;-72
2023/05/29 12:35:18;;;;;;;;;;;29.40;38.30;;;;;;5050509;28;19924;-71
2023/05/29 12:37:43;;;;;;;;;;;29.70;37.30;;;;;;5088273;28;19958;-71
2023/05/29 12:40:22;;;;;;;;;;;29.80;37.80;;;;;;5087000;28;20013;-72
2023/05/29 12:42:49;;;;;;;;;;;29.40;37.70;;;;;;5085752;28;19912;-72
2023/05/29 12:45:17;;;;;;;;;;;29.90;37.20;;;;;;5066669;28;20303;-71
2023/05/29 12:47:49;;;;;;;;;;;29.60;38.00;;;;;;5066946;28;20333;-70
2023/05/29 12:50:20;;;;;;;;;;;29.50;38.30;;;;;;5075497;28;19912;-71
2023/05/29 12:52:46;;;;;;;;;;;29.00;38.80;;;;;;5065678;28;19913;-69
2023/05/29 12:55:11;;;;;;;;;;;29.20;38.10;;;;;;5088025;28;19915;-71
2023/05/29 12:57:37;;;;;;;;;;;29.10;37.20;;;;;;5062537;28;19916;-72
2023/05/29 13:00:03;;;;;;;;;;;29.00;37.40;;;;;;5087036;28;19912;-70
2023/05/29 13:02:29;;;;;;;;;;;29.30;37.10;;;;;;5066307;28;19919;-70
2023/05/29 13:04:55;;;;;;;;;;;29.10;37.10;;;;;;5064646;28;20268;-71
2023/05/29 13:07:20;;;;;;;;;;;29.70;37.60;;;;;;5070542;28;19912;-71
2023/05/29 13:09:46;;;;;;;;;;;30.30;35.90;;;;;;5085876;28;20000;-72
2023/05/29 13:12:12;;;;;;;;;;;30.40;35.40;;;;;;5072781;28;19923;-71
2023/05/29 13:14:37;;;;;;;;;;;30.20;35.00;;;;;;5069939;28;19916;-72
2023/05/29 13:17:03;;;;;;;;;;;31.00;34.20;;;;;;5070619;28;19931;-71
2023/05/29 13:19:29;;;;;;;;;;;30.90;34.50;;;;;;5088609;28;20060;-71
2023/05/29 13:21:55;;;;;;;;;;;31.90;33.40;;;;;;5065663;28;19917;-72
2023/05/29 13:24:21;;;;;;;;;;;31.30;35.00;;;;;;5068670;28;20458;-73
2023/05/29 13:26:46;;;;;;;;;;;32.00;33.10;;;;;;5068061;28;20011;-73
2023/05/29 13:29:12;;;;;;;;;;;33.00;32.00;;;;;;5088604;28;20371;-72
2023/05/29 13:31:37;;;;;;;;;;;32.70;32.20;;;;;;5087546;28;20011;-71
2023/05/29 13:34:03;;;;;;;;;;;32.40;32.80;;;;;;5085859;28;20367;-71
2023/05/29 13:36:29;;;;;;;;;;;32.70;31.80;;;;;;5078725;28;19968;-72
2023/05/29 13:38:54;;;;;;;;;;;33.30;31.00;;;;;;5065406;28;19969;-70
2023/05/29 13:41:20;;;;;;;;;;;33.50;30.20;;;;;;5067525;28;20429;-72
2023/05/29 13:43:45;;;;;;;;;;;33.40;30.70;;;;;;5085034;28;19978;-72
2023/05/29 13:46:12;;;;;;;;;;;33.20;30.60;;;;;;5085786;28;19912;-73
2023/05/29 13:48:37;;;;;;;;;;;33.10;30.60;;;;;;5062220;28;19946;-73
2023/05/29 13:51:03;;;;;;;;;;;32.80;31.20;;;;;;5087726;28;19912;-78
2023/05/29 13:53:28;;;;;;;;;;;33.00;30.90;;;;;;5064146;28;20610;-77
2023/05/29 13:55:55;;;;;;;;;;;33.10;31.50;;;;;;5084275;28;21048;-77
2023/05/29 13:58:21;;;;;;;;;;;33.20;31.00;;;;;;5065587;28;19943;-74
2023/05/29 14:00:47;;;;;;;;;;;32.40;31.50;;;;;;5068409;28;20283;-76
2023/05/29 14:03:12;;;;;;;;;;;33.20;30.20;;;;;;5085111;28;19995;-72
2023/05/29 14:05:38;;;;;;;;;;;32.40;30.70;;;;;;5086833;28;20068;-80
2023/05/29 14:08:04;;;;;;;;;;;33.90;30.00;;;;;;5068301;28;19912;-72
2023/05/29 14:10:29;;;;;;;;;;;33.90;29.70;;;;;;5084791;28;20435;-72
2023/05/29 14:12:55;;;;;;;;;;;33.40;30.20;;;;;;5088320;28;19932;-77